createdAt,value
2022-10-20T05:38:12.143Z,5.21
2022-10-20T05:43:33.279Z,5.17
2022-10-20T05:48:57.085Z,5.18
2022-10-20T05:54:17.794Z,5.18
2022-10-20T05:59:38.743Z,5.16
2022-10-20T06:04:59.480Z,5.11
2022-10-20T06:10:20.421Z,5.18
2022-10-20T06:15:41.221Z,5.38
2022-10-20T06:21:04.187Z,5.50
2022-10-20T06:26:26.954Z,5.60
2022-10-20T06:31:50.243Z,5.67
2022-10-20T06:37:11.163Z,5.71
2022-10-20T06:42:31.746Z,5.87
2022-10-20T06:47:54.700Z,6.03
2022-10-20T06:53:15.553Z,6.18
2022-10-20T06:58:38.918Z,6.43
2022-10-20T07:04:05.930Z,6.85
2022-10-20T07:09:27.134Z,7.23
2022-10-20T07:14:48.766Z,7.48
2022-10-20T07:20:10.028Z,7.60
2022-10-20T07:25:31.024Z,7.88
2022-10-20T07:30:51.894Z,8.23
2022-10-20T07:36:18.343Z,8.67
2022-10-20T07:41:40.138Z,9.06
2022-10-20T07:47:01.004Z,9.32
2022-10-20T07:52:21.714Z,9.56
2022-10-20T07:57:42.572Z,9.84
2022-10-20T08:03:03.664Z,10.34
2022-10-20T08:08:24.762Z,10.75
2022-10-20T08:13:45.678Z,11.33
2022-10-20T08:24:40.990Z,12.86
2022-10-20T08:30:22.295Z,13.82
2022-10-20T08:35:42.843Z,15.38
2022-10-20T08:41:06.988Z,21.33
2022-10-20T08:46:33.437Z,27.13
2022-10-20T08:51:55.175Z,27.68
2022-10-20T08:57:23.818Z,29.09
2022-10-20T09:02:46.814Z,24.67
2022-10-20T09:08:07.917Z,20.77
2022-10-20T09:13:32.899Z,19.31
2022-10-20T09:18:57.530Z,18.43
2022-10-20T09:24:21.065Z,17.98
2022-10-20T09:29:41.878Z,17.64
2022-10-20T09:35:29.084Z,17.35
2022-10-20T09:41:07.030Z,16.79
2022-10-20T09:46:37.498Z,16.45
2022-10-20T09:52:00.318Z,16.23
2022-10-20T09:57:22.870Z,16.16
2022-10-20T10:02:43.956Z,15.92
2022-10-20T10:08:04.882Z,15.86
2022-10-20T10:13:27.371Z,15.88
2022-10-20T10:18:56.385Z,16.23
2022-10-20T10:24:26.494Z,16.42
2022-10-20T10:29:47.522Z,16.47
2022-10-20T10:35:35.990Z,16.49
2022-10-20T10:40:59.944Z,16.79
2022-10-20T10:46:28.345Z,17.19
2022-10-20T10:52:11.243Z,17.50
2022-10-20T10:57:40.690Z,17.62
2022-10-20T11:03:16.667Z,17.48
2022-10-20T11:08:52.789Z,17.33
2022-10-20T11:19:54.377Z,17.29
2022-10-20T11:25:28.344Z,17.40
2022-10-20T11:30:50.487Z,17.03
2022-10-20T11:36:18.136Z,17.00
2022-10-20T11:41:43.079Z,17.10
2022-10-20T11:47:09.873Z,17.50
2022-10-20T11:52:42.790Z,17.62
2022-10-20T11:58:21.814Z,17.55
2022-10-20T12:03:52.531Z,17.55
2022-10-20T12:09:19.363Z,17.86
2022-10-20T12:14:48.031Z,17.86
2022-10-20T12:20:21.068Z,18.05
2022-10-20T12:25:42.766Z,17.92
2022-10-20T12:31:05.823Z,17.83
2022-10-20T12:36:32.518Z,17.35
2022-10-20T12:42:03.421Z,16.77
2022-10-20T12:47:25.688Z,17.06
2022-10-20T12:52:46.955Z,17.13
2022-10-20T12:58:18.169Z,16.72
2022-10-20T13:03:46.768Z,16.88
2022-10-20T13:09:21.128Z,17.01
2022-10-20T13:14:51.468Z,17.09
2022-10-20T13:20:24.238Z,17.24
2022-10-20T13:25:48.558Z,17.55
2022-10-20T13:31:15.298Z,17.47
2022-10-20T13:36:57.545Z,17.68
2022-10-20T13:42:24.864Z,17.62
2022-10-20T13:48:22.576Z,17.40
2022-10-20T13:53:47.029Z,17.33
2022-10-20T13:59:14.292Z,16.90
2022-10-20T14:04:36.769Z,16.37
2022-10-20T14:09:58.309Z,16.43
2022-10-20T14:15:31.820Z,16.32
2022-10-20T14:21:04.922Z,16.35
2022-10-20T14:26:25.881Z,15.78
2022-10-20T14:31:48.711Z,15.42
2022-10-20T14:37:29.121Z,15.06
2022-10-20T14:42:51.314Z,14.75
2022-10-20T14:48:16.363Z,14.74
2022-10-20T14:53:37.197Z,14.54
2022-10-20T14:59:00.556Z,14.32
2022-10-20T15:04:26.979Z,14.32
2022-10-20T15:09:53.554Z,14.14
2022-10-20T15:15:20.849Z,13.91
2022-10-20T15:20:43.754Z,13.71
2022-10-20T15:26:10.189Z,13.51
2022-10-20T15:31:31.622Z,13.28
2022-10-20T15:36:52.694Z,13.07
2022-10-20T15:42:13.433Z,12.89
2022-10-20T15:47:34.488Z,12.74
2022-10-20T15:52:55.238Z,12.60
2022-10-20T15:58:15.949Z,12.45
2022-10-20T16:03:40.693Z,12.23
2022-10-20T16:09:01.910Z,12.08
2022-10-20T16:14:22.508Z,11.97
2022-10-20T16:19:43.313Z,11.86
2022-10-20T16:25:04.493Z,11.75
2022-10-20T16:30:25.509Z,11.66
2022-10-20T16:35:46.170Z,11.53
2022-10-20T16:41:10.163Z,11.42
2022-10-20T16:46:31.068Z,11.32
2022-10-20T16:51:51.943Z,11.36
2022-10-20T16:57:13.665Z,11.49
2022-10-20T17:02:38.258Z,11.49
2022-10-20T17:07:59.082Z,11.49
2022-10-20T17:13:20.178Z,11.47
2022-10-20T17:18:41.009Z,11.39
2022-10-20T17:24:01.555Z,11.42
2022-10-20T17:29:25.966Z,11.37
2022-10-20T17:34:47.365Z,11.21
2022-10-20T17:40:08.528Z,11.11
2022-10-20T17:45:29.282Z,10.90
2022-10-20T17:51:04.531Z,10.81
2022-10-20T17:56:27.790Z,10.68
2022-10-20T18:01:48.609Z,10.58
2022-10-20T18:07:09.254Z,10.51
2022-10-20T18:12:30.202Z,10.43
2022-10-20T18:17:51.065Z,10.37
2022-10-20T18:23:11.921Z,10.29
2022-10-20T18:28:32.876Z,10.25
2022-10-20T18:34:05.821Z,10.17
2022-10-20T18:39:27.377Z,10.11
2022-10-20T18:44:48.162Z,10.05
2022-10-20T18:50:09.372Z,10.00
2022-10-20T18:55:30.743Z,9.99
2022-10-20T19:01:04.235Z,9.95
2022-10-20T19:06:33.579Z,9.94
2022-10-20T19:11:54.770Z,9.83
2022-10-20T19:17:15.594Z,9.79
2022-10-20T19:22:36.431Z,9.74
2022-10-20T19:27:58.515Z,9.61
2022-10-20T19:33:19.488Z,9.59
2022-10-20T19:38:40.369Z,9.56
2022-10-20T19:44:02.267Z,9.53
2022-10-20T19:49:24.154Z,9.44
2022-10-20T19:54:45.723Z,9.41
2022-10-20T20:00:07.815Z,9.41
2022-10-20T20:05:28.589Z,9.34
2022-10-20T20:10:54.757Z,9.32
2022-10-20T20:16:19.573Z,9.36
2022-10-20T20:21:40.663Z,9.35
2022-10-20T20:27:01.372Z,9.34
2022-10-20T20:32:22.173Z,9.24
2022-10-20T20:37:42.938Z,9.19
2022-10-20T20:43:03.855Z,9.10
2022-10-20T20:48:24.664Z,9.10
2022-10-20T20:53:45.496Z,9.08
2022-10-20T20:59:06.423Z,9.03
2022-10-20T21:04:30.611Z,8.98
2022-10-20T21:09:51.722Z,9.01
2022-10-20T21:15:12.583Z,8.99
2022-10-20T21:20:33.308Z,8.99
2022-10-20T21:25:54.200Z,8.81
2022-10-20T21:31:18.038Z,8.75
2022-10-20T21:36:40.139Z,8.75
2022-10-20T21:42:01.042Z,8.75
2022-10-20T21:47:21.974Z,8.76
2022-10-20T21:52:42.727Z,8.70
2022-10-20T21:58:03.620Z,8.67
